Aviation Digital Data Service (ADDS)

Output produced by TAFs form (0738 UTC 29 May 2016)
found at http://www.aviationweather.gov/adds/tafs/
 
KALB 290520Z 2906/3006 17005KT P6SM FEW250 
     FM291200 18007KT P6SM SCT035 BKN120 
     FM291700 17010G15KT P6SM VCSH SCT060 BKN080 
     FM292300 17008KT 6SM BR VCSH SCT030 BKN050 OVC090